Terminal Aerodrome Forecast
Issued by NWS

Home | Current Version | Previous Version | Text Only | Print | Product List | Glossary On
Versions: 1 2 3 4 5 6 7 8 9 10 11 12 13 14 15 16 17 18 19 20 21
000
FTUS45 KBOU 221410 AAA
TAFBJC
TAF AMD
KBJC 221410Z 2214/2312 30010KT P6SM SCT120
     FM221700 02010KT P6SM SCT090 BKN200
     FM222000 06013G20KT P6SM SCT080 BKN200
      TEMPO 2222/2302 VRB15G30KT -TSRA BKN060CB
     FM230300 04010KT P6SM VCSH BKN060 BKN090
     FM230600 02010KT P6SM VCSH BKN025 OVC040
     FM230800 02013KT P6SM VCSH BKN015 OVC030=

USA.gov is the U.S. government's official web portal to all federal, state and local government web resources and services.